createdAt,value
2023-02-20T00:00:20.401Z,5.53
2023-02-20T00:02:49.329Z,4.53
2023-02-20T00:05:17.503Z,5.40
2023-02-20T00:07:44.699Z,5.22
2023-02-20T00:10:11.842Z,4.68
2023-02-20T00:12:38.931Z,4.80
2023-02-20T00:15:06.467Z,4.60
2023-02-20T00:17:34.410Z,4.45
2023-02-20T00:20:02.441Z,4.47
2023-02-20T00:22:29.135Z,5.03
2023-02-20T00:24:55.925Z,4.53
2023-02-20T00:27:22.594Z,5.07
2023-02-20T00:29:49.300Z,4.35
2023-02-20T00:32:16.246Z,4.35
2023-02-20T00:34:43.021Z,4.40
2023-02-20T00:37:10.399Z,4.85
2023-02-20T00:39:37.155Z,4.15
2023-02-20T00:42:05.159Z,4.78
2023-02-20T00:44:31.988Z,4.55
2023-02-20T00:46:58.686Z,4.50
2023-02-20T00:49:26.550Z,4.05
2023-02-20T00:51:53.870Z,4.85
2023-02-20T00:54:20.596Z,4.35
2023-02-20T00:56:47.536Z,4.35
2023-02-20T00:59:14.333Z,4.53
2023-02-20T01:01:42.309Z,4.35
2023-02-20T01:04:09.108Z,3.90
2023-02-20T01:06:35.862Z,3.55
2023-02-20T01:09:04.486Z,3.90
2023-02-20T01:11:31.195Z,3.78
2023-02-20T01:13:57.872Z,3.88
2023-02-20T01:16:24.556Z,4.18
2023-02-20T01:18:52.184Z,4.38
2023-02-20T01:21:19.295Z,4.07
2023-02-20T01:23:46.102Z,3.53
2023-02-20T01:26:13.287Z,3.47
2023-02-20T01:28:45.447Z,3.15
2023-02-20T01:31:12.781Z,3.70
2023-02-20T01:33:44.673Z,3.92
2023-02-20T01:36:12.161Z,3.53
2023-02-20T01:38:43.288Z,3.97
2023-02-20T01:41:11.378Z,3.55
2023-02-20T01:43:38.361Z,4.10
2023-02-20T01:46:27.103Z,3.92
2023-02-20T01:49:23.319Z,3.95
2023-02-20T01:51:58.250Z,3.97
2023-02-20T01:54:26.876Z,4.13
2023-02-20T01:56:57.192Z,3.78
2023-02-20T01:59:28.083Z,4.00
2023-02-20T02:01:55.188Z,4.20
2023-02-20T02:04:22.424Z,3.90
2023-02-20T02:06:52.541Z,4.97
2023-02-20T02:10:00.297Z,4.53
2023-02-20T02:12:28.131Z,4.75
2023-02-20T02:14:54.821Z,4.43
2023-02-20T02:17:39.554Z,4.75
2023-02-20T02:20:31.674Z,4.40
2023-02-20T02:23:10.645Z,4.95
2023-02-20T02:25:55.630Z,4.85
2023-02-20T02:28:52.137Z,5.55
2023-02-20T02:32:06.415Z,5.28
2023-02-20T02:34:50.319Z,5.05
2023-02-20T02:37:45.807Z,5.97
2023-02-20T02:40:52.748Z,5.65
2023-02-20T02:43:29.555Z,6.28
2023-02-20T02:46:04.987Z,6.30
2023-02-20T02:48:40.898Z,6.72
2023-02-20T02:51:17.777Z,6.85
2023-02-20T02:54:05.586Z,7.10
2023-02-20T02:56:37.122Z,7.72
2023-02-20T02:59:05.819Z,6.75
2023-02-20T03:01:37.177Z,7.88
2023-02-20T03:04:08.086Z,7.35
2023-02-20T03:06:38.238Z,7.40
2023-02-20T03:09:13.707Z,7.65
2023-02-20T03:11:42.984Z,8.95
2023-02-20T03:14:40.606Z,9.38
2023-02-20T03:17:30.451Z,9.23
2023-02-20T03:20:03.973Z,9.00
2023-02-20T03:22:43.338Z,9.90
2023-02-20T03:25:18.311Z,9.50
2023-02-20T03:28:00.537Z,10.48
2023-02-20T03:30:43.565Z,9.93
2023-02-20T03:33:53.612Z,10.05
2023-02-20T03:37:04.676Z,10.65
2023-02-20T03:39:53.618Z,10.68
2023-02-20T03:42:41.339Z,10.02
2023-02-20T03:45:09.834Z,13.45
2023-02-20T03:47:42.236Z,17.33
2023-02-20T03:50:11.105Z,15.27
2023-02-20T03:52:37.926Z,12.30
2023-02-20T03:55:05.576Z,10.40
2023-02-20T03:57:40.693Z,10.02
2023-02-20T04:00:20.308Z,10.23
2023-02-20T04:02:54.330Z,8.35
2023-02-20T04:07:57.001Z,9.25
2023-02-20T04:10:28.970Z,8.00
2023-02-20T04:12:59.410Z,7.75
2023-02-20T04:15:27.229Z,7.10
2023-02-20T04:18:03.288Z,6.70
2023-02-20T04:20:30.350Z,6.43
2023-02-20T04:23:02.097Z,6.57
2023-02-20T04:25:42.342Z,6.35
2023-02-20T04:28:09.402Z,5.50
2023-02-20T04:30:36.316Z,5.70
2023-02-20T04:33:03.228Z,4.72
2023-02-20T04:35:29.952Z,4.93
2023-02-20T04:37:57.002Z,5.00
2023-02-20T04:40:24.929Z,4.55
2023-02-20T04:42:51.748Z,4.35
2023-02-20T04:45:18.439Z,3.90
2023-02-20T04:47:45.740Z,4.40
2023-02-20T04:50:25.494Z,3.75
2023-02-20T04:52:52.486Z,3.20
2023-02-20T04:55:20.389Z,3.35
2023-02-20T04:57:49.485Z,4.10
2023-02-20T05:00:18.391Z,3.70
2023-02-20T05:02:45.483Z,3.53
2023-02-20T05:05:22.850Z,3.63
2023-02-20T05:07:53.582Z,3.47
2023-02-20T05:10:22.151Z,3.75
2023-02-20T05:12:48.882Z,3.40
2023-02-20T05:15:17.469Z,3.70
2023-02-20T05:17:45.472Z,4.00
2023-02-20T05:20:13.576Z,4.20
2023-02-20T05:22:40.379Z,4.38
2023-02-20T05:25:07.535Z,3.88
2023-02-20T05:27:34.286Z,4.38
2023-02-20T05:30:01.805Z,4.38
2023-02-20T05:32:31.390Z,4.38
2023-02-20T05:34:58.073Z,4.32
2023-02-20T05:37:26.434Z,5.10
2023-02-20T05:39:53.419Z,4.57
2023-02-20T05:42:21.523Z,5.32
2023-02-20T05:44:49.727Z,4.05
2023-02-20T05:47:17.276Z,3.95
2023-02-20T05:49:45.042Z,3.90
2023-02-20T05:52:13.033Z,3.65
2023-02-20T05:54:41.079Z,3.60
2023-02-20T05:57:08.940Z,3.60
2023-02-20T05:59:35.715Z,3.35
2023-02-20T06:02:02.573Z,3.25
2023-02-20T06:04:30.359Z,3.47
2023-02-20T06:06:57.037Z,3.78
2023-02-20T06:09:23.833Z,3.10
2023-02-20T06:11:55.063Z,3.22
2023-02-20T06:14:24.889Z,3.65
2023-02-20T06:16:51.707Z,3.20
2023-02-20T06:19:22.383Z,3.15
2023-02-20T06:21:50.846Z,2.80
2023-02-20T06:24:18.575Z,3.70
2023-02-20T06:26:45.872Z,3.15
2023-02-20T06:29:16.766Z,3.35
2023-02-20T06:31:43.801Z,2.80
2023-02-20T06:34:12.896Z,2.92
2023-02-20T06:36:41.125Z,6.15
2023-02-20T06:39:10.772Z,4.10
2023-02-20T06:41:37.568Z,2.75
2023-02-20T06:44:06.439Z,2.63
2023-02-20T06:46:33.161Z,2.67
2023-02-20T06:49:00.449Z,2.88
2023-02-20T06:51:33.921Z,2.97
2023-02-20T06:54:02.286Z,2.13
2023-02-20T06:56:32.618Z,2.60
2023-02-20T06:59:00.372Z,2.15
2023-02-20T07:01:31.006Z,2.80
2023-02-20T07:04:01.198Z,2.40
2023-02-20T07:06:28.819Z,2.42
2023-02-20T07:08:55.494Z,2.40
2023-02-20T07:11:24.773Z,2.63
2023-02-20T07:13:51.588Z,2.58
2023-02-20T07:16:18.380Z,2.28
2023-02-20T07:18:47.497Z,2.30
2023-02-20T07:21:16.625Z,2.28
2023-02-20T07:23:45.903Z,2.28
2023-02-20T07:26:21.336Z,2.08
2023-02-20T07:28:48.278Z,2.22
2023-02-20T07:31:15.116Z,2.33
2023-02-20T07:33:44.286Z,2.13
2023-02-20T07:36:12.580Z,2.17
2023-02-20T07:38:39.779Z,1.70
2023-02-20T07:41:06.922Z,1.85
2023-02-20T07:43:34.334Z,1.70
2023-02-20T07:46:01.575Z,1.58
2023-02-20T07:48:28.433Z,1.95
2023-02-20T07:50:55.109Z,2.08
2023-02-20T07:53:22.734Z,1.73
2023-02-20T07:55:49.607Z,1.60
2023-02-20T07:58:16.346Z,2.13
2023-02-20T08:00:43.173Z,1.38
2023-02-20T08:03:09.923Z,1.92
2023-02-20T08:05:48.731Z,2.08
2023-02-20T08:08:16.856Z,1.70
2023-02-20T08:10:44.819Z,2.05
2023-02-20T08:13:11.540Z,1.77
2023-02-20T08:15:40.865Z,1.77
2023-02-20T08:18:15.624Z,2.40
2023-02-20T08:20:49.820Z,1.40
2023-02-20T08:23:18.898Z,1.77
2023-02-20T08:25:45.724Z,2.30
2023-02-20T08:28:13.173Z,1.65
2023-02-20T08:30:40.003Z,1.98
2023-02-20T08:33:06.821Z,1.52
2023-02-20T08:35:36.969Z,1.58
2023-02-20T08:38:07.250Z,1.38
2023-02-20T08:40:35.080Z,1.63
2023-02-20T08:43:01.909Z,1.70
2023-02-20T08:45:29.780Z,1.90
2023-02-20T08:48:01.925Z,2.50
2023-02-20T08:50:28.857Z,1.50
2023-02-20T08:52:55.589Z,1.70
2023-02-20T08:55:23.382Z,1.70
2023-02-20T08:57:50.430Z,1.42
2023-02-20T09:00:19.076Z,1.30
2023-02-20T09:02:51.599Z,1.35
2023-02-20T09:05:19.386Z,2.20
2023-02-20T09:07:46.298Z,1.83
2023-02-20T09:10:13.215Z,1.60
2023-02-20T09:12:42.483Z,1.70
2023-02-20T09:15:09.914Z,1.40
2023-02-20T09:17:36.683Z,1.92
2023-02-20T09:20:05.899Z,1.88
2023-02-20T09:22:33.882Z,1.92
2023-02-20T09:25:01.456Z,1.60
2023-02-20T09:27:28.309Z,2.10
2023-02-20T09:29:55.093Z,1.85
2023-02-20T09:32:21.929Z,1.90
2023-02-20T09:34:48.696Z,2.00
2023-02-20T09:37:15.711Z,2.28
2023-02-20T09:39:43.662Z,2.20
2023-02-20T09:42:47.996Z,2.03
2023-02-20T09:45:19.956Z,2.50
2023-02-20T09:47:58.461Z,2.10
2023-02-20T09:50:47.018Z,1.92
2023-02-20T09:53:24.015Z,2.10
2023-02-20T09:55:52.291Z,2.05
2023-02-20T09:58:26.256Z,2.17
2023-02-20T10:00:56.774Z,2.47
2023-02-20T10:03:35.291Z,2.53
2023-02-20T10:06:10.040Z,1.73
2023-02-20T10:08:37.950Z,2.28
2023-02-20T10:11:11.050Z,2.50
2023-02-20T10:13:52.091Z,1.95
2023-02-20T10:16:46.942Z,2.58
2023-02-20T10:19:54.954Z,2.40
2023-02-20T10:22:35.022Z,2.00
2023-02-20T10:25:21.236Z,2.25
2023-02-20T10:28:07.541Z,2.40
2023-02-20T10:31:02.226Z,2.80
2023-02-20T10:36:22.566Z,2.80
2023-02-20T10:39:17.276Z,2.50
2023-02-20T10:44:50.175Z,2.92
2023-02-20T10:47:44.863Z,2.47
2023-02-20T10:50:40.823Z,3.17
2023-02-20T10:53:22.515Z,3.05
2023-02-20T10:55:53.195Z,3.40
2023-02-20T10:58:50.547Z,2.95
2023-02-20T11:01:23.244Z,3.95
2023-02-20T11:03:54.018Z,3.88
2023-02-20T11:06:23.372Z,3.10
2023-02-20T11:08:50.240Z,3.75
2023-02-20T11:11:22.894Z,3.38
2023-02-20T11:13:49.655Z,3.40
2023-02-20T11:16:46.118Z,3.03
2023-02-20T11:19:19.197Z,3.83
2023-02-20T11:21:48.772Z,4.07
2023-02-20T11:24:20.586Z,3.60
2023-02-20T11:26:52.132Z,3.67
2023-02-20T11:29:24.344Z,3.95
2023-02-20T11:31:51.315Z,3.42
2023-02-20T11:34:23.525Z,3.78
2023-02-20T11:36:56.256Z,4.22
2023-02-20T11:39:27.328Z,3.90
2023-02-20T11:42:21.516Z,3.55
2023-02-20T11:45:14.698Z,3.72
2023-02-20T11:47:42.328Z,3.78
2023-02-20T11:50:19.060Z,4.07
2023-02-20T11:52:58.916Z,3.65
2023-02-20T11:55:27.700Z,3.95
2023-02-20T11:57:54.613Z,3.40
2023-02-20T12:00:28.250Z,3.35
2023-02-20T12:03:10.025Z,4.53
2023-02-20T12:05:40.474Z,3.72
2023-02-20T12:08:38.583Z,4.13
2023-02-20T12:11:11.291Z,3.80
2023-02-20T12:13:47.198Z,4.25
2023-02-20T12:16:23.422Z,3.75
2023-02-20T12:19:00.429Z,3.40
2023-02-20T12:21:48.259Z,4.38
2023-02-20T12:24:42.461Z,3.83
2023-02-20T12:27:19.115Z,3.60
2023-02-20T12:30:13.616Z,4.10
2023-02-20T12:33:11.665Z,4.32
2023-02-20T12:35:57.335Z,3.85
2023-02-20T12:38:49.521Z,4.80
2023-02-20T12:41:28.917Z,4.68
2023-02-20T12:44:18.133Z,4.40
2023-02-20T12:47:03.377Z,4.13
2023-02-20T12:49:39.211Z,3.47
2023-02-20T12:52:34.524Z,4.15
2023-02-20T12:55:32.371Z,3.42
2023-02-20T12:58:36.988Z,3.75
2023-02-20T13:01:09.634Z,3.13
2023-02-20T13:06:41.384Z,2.97
2023-02-20T13:09:19.833Z,3.08
2023-02-20T13:11:52.283Z,3.15
2023-02-20T13:14:44.808Z,3.10
2023-02-20T13:17:52.892Z,2.95
2023-02-20T13:20:28.053Z,2.88
2023-02-20T13:23:03.502Z,3.05
2023-02-20T13:25:44.618Z,3.00
2023-02-20T13:28:14.284Z,3.40
2023-02-20T13:30:42.211Z,3.00
2023-02-20T13:33:25.368Z,3.03
2023-02-20T13:35:57.149Z,3.30
2023-02-20T13:38:26.882Z,3.70
2023-02-20T13:40:56.798Z,3.70
2023-02-20T13:43:23.634Z,5.40
2023-02-20T13:46:13.818Z,5.90
2023-02-20T13:48:46.631Z,6.20
2023-02-20T13:51:19.914Z,6.85
2023-02-20T13:54:23.399Z,8.67
2023-02-20T13:56:59.813Z,9.68
2023-02-20T13:59:29.589Z,9.80
2023-02-20T14:02:29.588Z,9.07
2023-02-20T14:05:02.717Z,9.05
2023-02-20T14:07:43.053Z,8.25
2023-02-20T14:10:27.992Z,8.63
2023-02-20T14:13:05.008Z,8.77
2023-02-20T14:15:42.687Z,8.73
2023-02-20T14:18:32.910Z,8.75
2023-02-20T14:21:08.852Z,8.48
2023-02-20T14:23:35.994Z,9.20
2023-02-20T14:26:06.021Z,8.27
2023-02-20T14:28:34.809Z,8.02
2023-02-20T14:31:23.240Z,8.00
2023-02-20T14:33:55.011Z,8.68
2023-02-20T14:36:44.728Z,8.35
2023-02-20T14:39:17.623Z,7.63
2023-02-20T14:41:58.949Z,7.63
2023-02-20T14:44:26.512Z,6.35
2023-02-20T14:46:57.698Z,7.18
2023-02-20T14:49:27.353Z,7.25
2023-02-20T14:52:09.926Z,6.00
2023-02-20T14:54:38.512Z,6.13
2023-02-20T14:57:06.697Z,6.22
2023-02-20T14:59:39.798Z,6.32
2023-02-20T15:02:06.436Z,6.20
2023-02-20T15:04:33.147Z,6.55
2023-02-20T15:07:07.674Z,6.18
2023-02-20T15:09:44.758Z,6.68
2023-02-20T15:12:41.439Z,6.78
2023-02-20T15:15:14.498Z,7.63
2023-02-20T15:17:44.249Z,5.75
2023-02-20T15:20:18.624Z,5.97
2023-02-20T15:22:46.536Z,6.30
2023-02-20T15:25:26.599Z,5.90
2023-02-20T15:28:13.717Z,5.90
2023-02-20T15:31:19.987Z,6.90
2023-02-20T15:33:51.634Z,6.57
2023-02-20T15:36:23.681Z,6.55
2023-02-20T15:38:55.325Z,6.85
2023-02-20T15:41:23.950Z,7.00
2023-02-20T15:43:53.909Z,7.82
2023-02-20T15:46:21.159Z,7.72
2023-02-20T15:48:49.294Z,6.57
2023-02-20T15:51:23.093Z,6.25
2023-02-20T15:53:52.416Z,6.50
2023-02-20T15:56:20.492Z,7.03
2023-02-20T15:58:48.440Z,7.88
2023-02-20T16:01:19.730Z,7.30
2023-02-20T16:03:54.712Z,7.88
2023-02-20T16:06:23.128Z,7.55
2023-02-20T16:08:50.871Z,9.25
2023-02-20T16:11:19.435Z,8.52
2023-02-20T16:13:49.218Z,8.05
2023-02-20T16:16:28.579Z,8.30
2023-02-20T16:18:55.903Z,8.27
2023-02-20T16:21:25.801Z,8.57
2023-02-20T16:23:53.863Z,8.80
2023-02-20T16:26:24.078Z,8.63
2023-02-20T16:28:57.020Z,8.93
2023-02-20T16:31:59.742Z,9.15
2023-02-20T16:34:28.741Z,9.50
2023-02-20T16:36:56.463Z,9.73
2023-02-20T16:39:27.561Z,10.00
2023-02-20T16:41:58.533Z,10.35
2023-02-20T16:44:42.478Z,11.85
2023-02-20T16:47:12.212Z,11.90
2023-02-20T16:49:40.516Z,11.68
2023-02-20T16:52:18.020Z,12.75
2023-02-20T16:54:48.180Z,11.93
2023-02-20T16:57:18.478Z,11.57
2023-02-20T16:59:45.613Z,12.15
2023-02-20T17:02:21.543Z,13.30
2023-02-20T17:04:49.766Z,12.93
2023-02-20T17:07:17.141Z,11.82
2023-02-20T17:09:46.414Z,12.68
2023-02-20T17:12:16.298Z,13.98
2023-02-20T17:14:44.430Z,13.75
2023-02-20T17:17:11.439Z,14.48
2023-02-20T17:19:39.484Z,14.68
2023-02-20T17:22:07.245Z,14.68
2023-02-20T17:24:35.720Z,14.63
2023-02-20T17:27:03.005Z,15.13
2023-02-20T17:29:32.006Z,15.30
2023-02-20T17:31:59.058Z,15.57
2023-02-20T17:34:28.019Z,14.32
2023-02-20T17:36:54.726Z,15.70
2023-02-20T17:39:22.834Z,16.50
2023-02-20T17:41:51.293Z,15.60
2023-02-20T17:44:20.461Z,16.25
2023-02-20T17:46:49.362Z,16.65
2023-02-20T17:49:19.496Z,16.13
2023-02-20T17:51:46.660Z,15.82
2023-02-20T17:54:14.355Z,14.88
2023-02-20T17:56:47.557Z,15.10
2023-02-20T17:59:17.111Z,15.40
2023-02-20T18:01:44.910Z,15.57
2023-02-20T18:04:15.211Z,14.38
2023-02-20T18:06:42.262Z,14.70
2023-02-20T18:09:10.266Z,14.82
2023-02-20T18:11:38.623Z,14.80
2023-02-20T18:14:06.560Z,15.65
2023-02-20T18:16:33.713Z,14.27
2023-02-20T18:19:02.193Z,11.20
2023-02-20T18:21:31.174Z,14.90
2023-02-20T18:23:58.856Z,14.27
2023-02-20T18:26:25.821Z,14.88
2023-02-20T18:28:52.660Z,14.35
2023-02-20T18:31:21.113Z,14.48
2023-02-20T18:33:49.757Z,14.40
2023-02-20T18:36:17.003Z,14.35
2023-02-20T18:38:43.963Z,14.18
2023-02-20T18:41:12.403Z,15.10
2023-02-20T18:43:43.252Z,15.25
2023-02-20T18:46:09.994Z,15.57
2023-02-20T18:48:39.634Z,16.90
2023-02-20T18:51:06.797Z,17.52
2023-02-20T18:53:33.731Z,16.65
2023-02-20T18:56:00.581Z,16.30
2023-02-20T18:58:30.438Z,16.45
2023-02-20T19:00:57.956Z,15.95
2023-02-20T19:03:24.887Z,15.35
2023-02-20T19:05:53.826Z,15.18
2023-02-20T19:08:23.033Z,14.82
2023-02-20T19:10:52.630Z,16.23
2023-02-20T19:13:19.306Z,14.52
2023-02-20T19:15:50.686Z,14.02
2023-02-20T19:18:20.189Z,16.35
2023-02-20T19:20:47.055Z,17.35
2023-02-20T19:23:14.002Z,16.42
2023-02-20T19:25:42.887Z,16.63
2023-02-20T19:28:11.785Z,18.65
2023-02-20T19:30:39.813Z,18.35
2023-02-20T19:33:08.030Z,17.23
2023-02-20T19:35:36.377Z,18.05
2023-02-20T19:38:03.280Z,17.05
2023-02-20T19:40:30.235Z,16.90
2023-02-20T19:42:57.155Z,17.20
2023-02-20T19:45:26.094Z,16.00
2023-02-20T19:47:54.316Z,17.08
2023-02-20T19:50:21.490Z,17.00
2023-02-20T19:52:48.417Z,17.55
2023-02-20T19:55:21.567Z,15.40
2023-02-20T19:57:48.668Z,15.27
2023-02-20T20:00:21.869Z,14.68
2023-02-20T20:02:49.154Z,11.43
2023-02-20T20:05:16.830Z,15.27
2023-02-20T20:07:43.887Z,15.32
2023-02-20T20:10:11.562Z,15.57
2023-02-20T20:12:48.535Z,15.48
2023-02-20T20:15:19.956Z,16.15
2023-02-20T20:17:51.522Z,15.00
2023-02-20T20:20:19.413Z,15.98
2023-02-20T20:22:48.292Z,16.13
2023-02-20T20:25:16.912Z,15.75
2023-02-20T20:27:43.943Z,15.40
2023-02-20T20:30:18.148Z,16.02
2023-02-20T20:32:46.613Z,18.23
2023-02-20T20:35:14.652Z,18.42
2023-02-20T20:37:41.359Z,20.27
2023-02-20T20:40:10.689Z,19.90
2023-02-20T20:42:37.789Z,18.08
2023-02-20T20:45:06.957Z,18.38
2023-02-20T20:47:35.296Z,16.98
2023-02-20T20:50:02.137Z,18.95
2023-02-20T20:52:30.993Z,19.42
2023-02-20T20:55:01.049Z,19.00
2023-02-20T20:57:32.419Z,19.58
2023-02-20T21:00:00.636Z,18.45
2023-02-20T21:02:28.557Z,20.35
2023-02-20T21:05:09.137Z,20.80
2023-02-20T21:07:37.567Z,20.77
2023-02-20T21:10:04.586Z,21.88
2023-02-20T21:12:32.435Z,19.35
2023-02-20T21:15:02.124Z,20.65
2023-02-20T21:17:29.253Z,21.98
2023-02-20T21:19:56.010Z,20.02
2023-02-20T21:22:23.217Z,21.20
2023-02-20T21:24:50.070Z,20.88
2023-02-20T21:27:18.051Z,19.48
2023-02-20T21:29:44.765Z,20.38
2023-02-20T21:32:11.611Z,18.33
2023-02-20T21:34:40.015Z,17.95
2023-02-20T21:37:08.363Z,19.02
2023-02-20T21:39:35.159Z,18.02
2023-02-20T21:42:20.569Z,18.83
2023-02-20T21:44:47.955Z,19.83
2023-02-20T21:47:18.876Z,19.33
2023-02-20T21:49:47.492Z,19.38
2023-02-20T21:52:16.038Z,19.27
2023-02-20T21:54:47.809Z,19.33
2023-02-20T21:57:14.931Z,19.50
2023-02-20T21:59:42.098Z,20.13
2023-02-20T22:02:18.712Z,20.75
2023-02-20T22:04:45.586Z,20.52
2023-02-20T22:07:31.507Z,20.73
2023-02-20T22:10:18.104Z,20.33
2023-02-20T22:13:03.555Z,19.20
2023-02-20T22:15:48.806Z,20.50
2023-02-20T22:18:35.680Z,19.17
2023-02-20T22:21:21.328Z,20.15
2023-02-20T22:24:07.043Z,20.02
2023-02-20T22:26:54.718Z,22.27
2023-02-20T22:29:41.292Z,23.00
2023-02-20T22:32:26.656Z,22.42
2023-02-20T22:35:12.533Z,22.85
2023-02-20T22:37:58.025Z,22.08
2023-02-20T22:40:45.062Z,22.80
2023-02-20T22:43:30.636Z,24.50
2023-02-20T22:46:16.511Z,23.95
2023-02-20T22:49:04.477Z,24.17
2023-02-20T22:51:52.493Z,22.70
2023-02-20T22:54:43.573Z,22.70
2023-02-20T22:57:29.911Z,22.73
2023-02-20T23:00:16.627Z,23.83
2023-02-20T23:03:02.117Z,23.95
2023-02-20T23:05:51.784Z,24.85
2023-02-20T23:08:37.494Z,24.73
2023-02-20T23:11:24.351Z,23.45
2023-02-20T23:14:11.113Z,24.27
2023-02-20T23:16:56.787Z,23.10
2023-02-20T23:19:42.334Z,24.10
2023-02-20T23:22:27.748Z,24.38
2023-02-20T23:25:13.233Z,24.67
2023-02-20T23:27:58.590Z,23.88
2023-02-20T23:30:44.071Z,23.10
2023-02-20T23:33:29.519Z,22.25
2023-02-20T23:36:15.958Z,21.15
2023-02-20T23:39:01.296Z,20.33
2023-02-20T23:41:46.722Z,19.95
2023-02-20T23:44:32.657Z,20.15
2023-02-20T23:47:19.220Z,19.50
2023-02-20T23:50:04.786Z,19.98
2023-02-20T23:52:50.032Z,20.75
2023-02-20T23:55:36.546Z,20.27
2023-02-20T23:58:21.913Z,19.15
